sensor_id;sensor_type;location;lat;lon;timestamp;P1;durP1;ratioP1;P2;durP2;ratioP2
1380;SDS011;684;48.342;10.096;2024-02-15T00:00:20;7.03;;;4.10;;
1380;SDS011;684;48.342;10.096;2024-02-15T00:02:48;7.50;;;3.87;;
1380;SDS011;684;48.342;10.096;2024-02-15T00:05:14;7.50;;;4.13;;
1380;SDS011;684;48.342;10.096;2024-02-15T00:07:41;7.20;;;3.50;;
1380;SDS011;684;48.342;10.096;2024-02-15T00:10:10;6.83;;;3.83;;
1380;SDS011;684;48.342;10.096;2024-02-15T00:12:37;6.90;;;3.87;;
1380;SDS011;684;48.342;10.096;2024-02-15T00:15:04;7.60;;;4.00;;
1380;SDS011;684;48.342;10.096;2024-02-15T00:17:32;8.30;;;3.47;;
1380;SDS011;684;48.342;10.096;2024-02-15T00:20:00;5.93;;;3.70;;
1380;SDS011;684;48.342;10.096;2024-02-15T00:22:26;6.70;;;3.40;;
1380;SDS011;684;48.342;10.096;2024-02-15T00:24:52;7.10;;;4.27;;
1380;SDS011;684;48.342;10.096;2024-02-15T00:27:21;6.60;;;4.07;;
1380;SDS011;684;48.342;10.096;2024-02-15T00:29:47;7.57;;;4.83;;
1380;SDS011;684;48.342;10.096;2024-02-15T00:32:14;8.93;;;3.20;;
1380;SDS011;684;48.342;10.096;2024-02-15T00:34:41;6.67;;;3.33;;
1380;SDS011;684;48.342;10.096;2024-02-15T00:37:08;6.07;;;3.47;;
1380;SDS011;684;48.342;10.096;2024-02-15T00:39:35;6.13;;;2.70;;
1380;SDS011;684;48.342;10.096;2024-02-15T00:42:01;6.63;;;2.93;;
1380;SDS011;684;48.342;10.096;2024-02-15T00:44:30;7.40;;;3.23;;
1380;SDS011;684;48.342;10.096;2024-02-15T00:46:57;6.10;;;2.80;;
1380;SDS011;684;48.342;10.096;2024-02-15T00:49:23;6.20;;;2.63;;
1380;SDS011;684;48.342;10.096;2024-02-15T00:51:52;7.33;;;3.20;;
1380;SDS011;684;48.342;10.096;2024-02-15T00:54:19;5.03;;;3.13;;
1380;SDS011;684;48.342;10.096;2024-02-15T00:56:47;7.33;;;3.20;;
1380;SDS011;684;48.342;10.096;2024-02-15T00:59:14;6.60;;;3.30;;
1380;SDS011;684;48.342;10.096;2024-02-15T01:01:42;7.13;;;3.67;;
1380;SDS011;684;48.342;10.096;2024-02-15T01:04:09;10.63;;;3.57;;
1380;SDS011;684;48.342;10.096;2024-02-15T01:06:36;6.33;;;3.30;;
1380;SDS011;684;48.342;10.096;2024-02-15T01:09:03;6.80;;;3.47;;
1380;SDS011;684;48.342;10.096;2024-02-15T01:11:30;6.03;;;3.60;;
1380;SDS011;684;48.342;10.096;2024-02-15T01:13:58;5.53;;;3.10;;
1380;SDS011;684;48.342;10.096;2024-02-15T01:16:25;6.30;;;3.00;;
1380;SDS011;684;48.342;10.096;2024-02-15T01:18:53;10.20;;;3.13;;
1380;SDS011;684;48.342;10.096;2024-02-15T01:21:20;6.10;;;3.20;;
1380;SDS011;684;48.342;10.096;2024-02-15T01:23:47;6.20;;;3.20;;
1380;SDS011;684;48.342;10.096;2024-02-15T01:26:15;8.80;;;3.10;;
1380;SDS011;684;48.342;10.096;2024-02-15T01:28:41;5.67;;;3.57;;
1380;SDS011;684;48.342;10.096;2024-02-15T01:31:08;6.47;;;3.80;;
1380;SDS011;684;48.342;10.096;2024-02-15T01:33:37;6.73;;;3.63;;
1380;SDS011;684;48.342;10.096;2024-02-15T01:36:06;8.47;;;3.70;;
1380;SDS011;684;48.342;10.096;2024-02-15T01:38:33;7.83;;;3.67;;
1380;SDS011;684;48.342;10.096;2024-02-15T01:40:59;6.50;;;3.37;;
1380;SDS011;684;48.342;10.096;2024-02-15T01:43:26;5.93;;;3.13;;
1380;SDS011;684;48.342;10.096;2024-02-15T01:45:53;5.67;;;3.27;;
1380;SDS011;684;48.342;10.096;2024-02-15T01:48:21;8.17;;;3.87;;
1380;SDS011;684;48.342;10.096;2024-02-15T01:50:49;6.90;;;3.57;;
1380;SDS011;684;48.342;10.096;2024-02-15T01:53:18;7.07;;;3.70;;
1380;SDS011;684;48.342;10.096;2024-02-15T01:55:45;6.77;;;3.37;;
1380;SDS011;684;48.342;10.096;2024-02-15T01:58:12;6.60;;;3.97;;
1380;SDS011;684;48.342;10.096;2024-02-15T02:00:40;8.17;;;4.33;;
1380;SDS011;684;48.342;10.096;2024-02-15T02:03:07;7.40;;;4.00;;
1380;SDS011;684;48.342;10.096;2024-02-15T02:05:36;8.80;;;3.70;;
1380;SDS011;684;48.342;10.096;2024-02-15T02:08:04;6.63;;;3.23;;
1380;SDS011;684;48.342;10.096;2024-02-15T02:10:35;6.20;;;3.70;;
1380;SDS011;684;48.342;10.096;2024-02-15T02:13:03;5.70;;;3.23;;
1380;SDS011;684;48.342;10.096;2024-02-15T02:15:31;5.43;;;3.03;;
1380;SDS011;684;48.342;10.096;2024-02-15T02:17:58;6.37;;;4.00;;
1380;SDS011;684;48.342;10.096;2024-02-15T02:20:26;7.10;;;3.80;;
1380;SDS011;684;48.342;10.096;2024-02-15T02:22:54;7.87;;;3.23;;
1380;SDS011;684;48.342;10.096;2024-02-15T02:25:33;5.67;;;3.50;;
1380;SDS011;684;48.342;10.096;2024-02-15T02:28:00;9.73;;;3.90;;
1380;SDS011;684;48.342;10.096;2024-02-15T02:30:27;12.40;;;4.10;;
1380;SDS011;684;48.342;10.096;2024-02-15T02:32:55;9.13;;;4.43;;
1380;SDS011;684;48.342;10.096;2024-02-15T02:35:24;6.13;;;3.77;;
1380;SDS011;684;48.342;10.096;2024-02-15T02:37:51;8.87;;;4.00;;
1380;SDS011;684;48.342;10.096;2024-02-15T02:40:19;6.50;;;3.70;;
1380;SDS011;684;48.342;10.096;2024-02-15T02:42:48;8.97;;;4.30;;
1380;SDS011;684;48.342;10.096;2024-02-15T02:45:16;6.30;;;3.50;;
1380;SDS011;684;48.342;10.096;2024-02-15T02:47:44;5.97;;;3.60;;
1380;SDS011;684;48.342;10.096;2024-02-15T02:50:12;7.50;;;3.87;;
1380;SDS011;684;48.342;10.096;2024-02-15T02:52:39;5.97;;;3.57;;
1380;SDS011;684;48.342;10.096;2024-02-15T02:55:06;7.50;;;3.40;;
1380;SDS011;684;48.342;10.096;2024-02-15T02:57:34;5.57;;;3.47;;
1380;SDS011;684;48.342;10.096;2024-02-15T03:00:04;6.60;;;4.10;;
1380;SDS011;684;48.342;10.096;2024-02-15T03:02:35;7.57;;;4.17;;
1380;SDS011;684;48.342;10.096;2024-02-15T03:05:02;7.43;;;4.07;;
1380;SDS011;684;48.342;10.096;2024-02-15T03:07:32;6.67;;;4.03;;
1380;SDS011;684;48.342;10.096;2024-02-15T03:09:59;6.67;;;3.90;;
1380;SDS011;684;48.342;10.096;2024-02-15T03:12:26;5.73;;;3.80;;
1380;SDS011;684;48.342;10.096;2024-02-15T03:14:54;6.93;;;4.03;;
1380;SDS011;684;48.342;10.096;2024-02-15T03:17:23;6.60;;;3.70;;
1380;SDS011;684;48.342;10.096;2024-02-15T03:19:51;7.57;;;3.67;;
1380;SDS011;684;48.342;10.096;2024-02-15T03:22:17;6.33;;;3.23;;
1380;SDS011;684;48.342;10.096;2024-02-15T03:24:44;6.80;;;3.43;;
1380;SDS011;684;48.342;10.096;2024-02-15T03:27:11;7.20;;;3.40;;
1380;SDS011;684;48.342;10.096;2024-02-15T03:29:38;7.53;;;3.67;;
1380;SDS011;684;48.342;10.096;2024-02-15T03:32:06;10.03;;;3.77;;
1380;SDS011;684;48.342;10.096;2024-02-15T03:34:36;7.00;;;3.40;;
1380;SDS011;684;48.342;10.096;2024-02-15T03:37:04;7.47;;;3.97;;
1380;SDS011;684;48.342;10.096;2024-02-15T03:39:31;6.10;;;3.20;;
1380;SDS011;684;48.342;10.096;2024-02-15T03:41:58;5.50;;;3.60;;
1380;SDS011;684;48.342;10.096;2024-02-15T03:44:25;6.47;;;3.73;;
1380;SDS011;684;48.342;10.096;2024-02-15T03:46:52;6.00;;;3.60;;
1380;SDS011;684;48.342;10.096;2024-02-15T03:49:20;5.80;;;3.50;;
1380;SDS011;684;48.342;10.096;2024-02-15T03:51:49;7.40;;;4.30;;
1380;SDS011;684;48.342;10.096;2024-02-15T03:54:15;6.87;;;4.03;;
1380;SDS011;684;48.342;10.096;2024-02-15T03:56:48;10.90;;;3.70;;
1380;SDS011;684;48.342;10.096;2024-02-15T03:59:17;7.83;;;4.47;;
1380;SDS011;684;48.342;10.096;2024-02-15T04:01:46;9.03;;;4.10;;
1380;SDS011;684;48.342;10.096;2024-02-15T04:04:13;6.90;;;4.47;;
1380;SDS011;684;48.342;10.096;2024-02-15T04:06:40;7.03;;;4.40;;
1380;SDS011;684;48.342;10.096;2024-02-15T04:09:09;8.03;;;4.13;;
1380;SDS011;684;48.342;10.096;2024-02-15T04:11:36;7.50;;;4.10;;
1380;SDS011;684;48.342;10.096;2024-02-15T04:14:03;6.30;;;3.73;;
1380;SDS011;684;48.342;10.096;2024-02-15T04:16:30;8.30;;;4.20;;
1380;SDS011;684;48.342;10.096;2024-02-15T04:18:58;7.77;;;4.30;;
1380;SDS011;684;48.342;10.096;2024-02-15T04:21:26;8.93;;;4.23;;
1380;SDS011;684;48.342;10.096;2024-02-15T04:23:53;6.70;;;4.40;;
1380;SDS011;684;48.342;10.096;2024-02-15T04:26:21;9.27;;;4.80;;
1380;SDS011;684;48.342;10.096;2024-02-15T04:28:51;7.60;;;5.10;;
1380;SDS011;684;48.342;10.096;2024-02-15T04:31:19;7.40;;;4.10;;
1380;SDS011;684;48.342;10.096;2024-02-15T04:33:51;7.60;;;4.20;;
1380;SDS011;684;48.342;10.096;2024-02-15T04:36:18;8.20;;;4.77;;
1380;SDS011;684;48.342;10.096;2024-02-15T04:38:48;7.93;;;4.53;;
1380;SDS011;684;48.342;10.096;2024-02-15T04:41:16;7.27;;;4.87;;
1380;SDS011;684;48.342;10.096;2024-02-15T04:43:46;12.37;;;4.80;;
1380;SDS011;684;48.342;10.096;2024-02-15T04:46:13;8.70;;;4.30;;
1380;SDS011;684;48.342;10.096;2024-02-15T04:48:40;7.93;;;4.40;;
1380;SDS011;684;48.342;10.096;2024-02-15T04:51:08;11.80;;;4.60;;
1380;SDS011;684;48.342;10.096;2024-02-15T04:53:35;9.57;;;4.37;;
1380;SDS011;684;48.342;10.096;2024-02-15T04:56:03;10.07;;;4.90;;
1380;SDS011;684;48.342;10.096;2024-02-15T04:58:36;8.53;;;5.17;;
1380;SDS011;684;48.342;10.096;2024-02-15T05:01:11;10.03;;;4.93;;
1380;SDS011;684;48.342;10.096;2024-02-15T05:03:39;8.63;;;4.80;;
1380;SDS011;684;48.342;10.096;2024-02-15T05:06:06;7.60;;;4.33;;
1380;SDS011;684;48.342;10.096;2024-02-15T05:08:34;7.07;;;4.40;;
1380;SDS011;684;48.342;10.096;2024-02-15T05:11:07;7.37;;;4.40;;
1380;SDS011;684;48.342;10.096;2024-02-15T05:13:39;7.37;;;4.20;;
1380;SDS011;684;48.342;10.096;2024-02-15T05:16:06;8.97;;;5.00;;
1380;SDS011;684;48.342;10.096;2024-02-15T05:18:34;12.60;;;4.83;;
1380;SDS011;684;48.342;10.096;2024-02-15T05:21:01;7.80;;;4.60;;
1380;SDS011;684;48.342;10.096;2024-02-15T05:23:28;9.17;;;4.53;;
1380;SDS011;684;48.342;10.096;2024-02-15T05:25:55;6.57;;;4.03;;
1380;SDS011;684;48.342;10.096;2024-02-15T05:28:23;7.50;;;5.07;;
1380;SDS011;684;48.342;10.096;2024-02-15T05:31:08;10.93;;;5.23;;
1380;SDS011;684;48.342;10.096;2024-02-15T05:33:37;10.97;;;4.60;;
1380;SDS011;684;48.342;10.096;2024-02-15T05:36:07;7.03;;;3.77;;
1380;SDS011;684;48.342;10.096;2024-02-15T05:38:35;9.37;;;4.87;;
1380;SDS011;684;48.342;10.096;2024-02-15T05:41:02;8.27;;;5.33;;
1380;SDS011;684;48.342;10.096;2024-02-15T05:43:29;6.80;;;4.20;;
1380;SDS011;684;48.342;10.096;2024-02-15T05:45:57;8.47;;;5.40;;
1380;SDS011;684;48.342;10.096;2024-02-15T05:48:25;7.73;;;4.53;;
1380;SDS011;684;48.342;10.096;2024-02-15T05:50:54;8.20;;;4.30;;
1380;SDS011;684;48.342;10.096;2024-02-15T05:53:22;8.30;;;4.40;;
1380;SDS011;684;48.342;10.096;2024-02-15T05:55:49;7.10;;;4.40;;
1380;SDS011;684;48.342;10.096;2024-02-15T05:58:16;7.87;;;4.07;;
1380;SDS011;684;48.342;10.096;2024-02-15T06:00:43;8.80;;;5.00;;
1380;SDS011;684;48.342;10.096;2024-02-15T06:03:14;9.77;;;4.77;;
1380;SDS011;684;48.342;10.096;2024-02-15T06:05:41;6.87;;;4.20;;
1380;SDS011;684;48.342;10.096;2024-02-15T06:08:11;7.77;;;3.57;;
1380;SDS011;684;48.342;10.096;2024-02-15T06:10:38;9.40;;;5.20;;
1380;SDS011;684;48.342;10.096;2024-02-15T06:13:05;8.40;;;4.37;;
1380;SDS011;684;48.342;10.096;2024-02-15T06:15:33;8.03;;;4.40;;
1380;SDS011;684;48.342;10.096;2024-02-15T06:18:01;6.67;;;4.00;;
1380;SDS011;684;48.342;10.096;2024-02-15T06:20:34;11.90;;;4.30;;
1380;SDS011;684;48.342;10.096;2024-02-15T06:23:01;8.47;;;4.10;;
1380;SDS011;684;48.342;10.096;2024-02-15T06:25:31;7.60;;;4.63;;
1380;SDS011;684;48.342;10.096;2024-02-15T06:27:58;8.53;;;4.90;;
1380;SDS011;684;48.342;10.096;2024-02-15T06:30:27;13.40;;;4.90;;
1380;SDS011;684;48.342;10.096;2024-02-15T06:33:11;9.77;;;5.03;;
1380;SDS011;684;48.342;10.096;2024-02-15T06:35:55;7.50;;;4.77;;
1380;SDS011;684;48.342;10.096;2024-02-15T06:38:54;6.80;;;4.50;;
1380;SDS011;684;48.342;10.096;2024-02-15T06:41:40;9.07;;;5.97;;
1380;SDS011;684;48.342;10.096;2024-02-15T06:44:06;7.50;;;4.80;;
1380;SDS011;684;48.342;10.096;2024-02-15T06:46:34;8.00;;;5.00;;
1380;SDS011;684;48.342;10.096;2024-02-15T06:49:01;8.17;;;4.77;;
1380;SDS011;684;48.342;10.096;2024-02-15T06:51:29;8.03;;;4.17;;
1380;SDS011;684;48.342;10.096;2024-02-15T06:53:56;6.43;;;4.30;;
1380;SDS011;684;48.342;10.096;2024-02-15T06:56:23;8.30;;;4.40;;
1380;SDS011;684;48.342;10.096;2024-02-15T06:58:51;8.13;;;4.77;;
1380;SDS011;684;48.342;10.096;2024-02-15T07:01:18;7.23;;;3.90;;
1380;SDS011;684;48.342;10.096;2024-02-15T07:03:45;8.00;;;4.10;;
1380;SDS011;684;48.342;10.096;2024-02-15T07:06:13;8.67;;;5.63;;
1380;SDS011;684;48.342;10.096;2024-02-15T07:08:40;8.00;;;4.10;;
1380;SDS011;684;48.342;10.096;2024-02-15T07:11:06;8.13;;;3.33;;
1380;SDS011;684;48.342;10.096;2024-02-15T07:13:34;8.03;;;3.70;;
1380;SDS011;684;48.342;10.096;2024-02-15T07:16:05;7.73;;;4.60;;
1380;SDS011;684;48.342;10.096;2024-02-15T07:18:33;9.73;;;4.00;;
1380;SDS011;684;48.342;10.096;2024-02-15T07:21:00;9.60;;;4.10;;
1380;SDS011;684;48.342;10.096;2024-02-15T07:23:29;6.13;;;3.60;;
1380;SDS011;684;48.342;10.096;2024-02-15T07:25:55;6.00;;;3.33;;
1380;SDS011;684;48.342;10.096;2024-02-15T07:28:23;7.20;;;3.60;;
1380;SDS011;684;48.342;10.096;2024-02-15T07:30:51;7.20;;;3.50;;
1380;SDS011;684;48.342;10.096;2024-02-15T07:33:20;9.30;;;3.70;;
1380;SDS011;684;48.342;10.096;2024-02-15T07:35:48;6.07;;;3.50;;
1380;SDS011;684;48.342;10.096;2024-02-15T07:38:16;6.87;;;3.70;;
1380;SDS011;684;48.342;10.096;2024-02-15T07:40:43;7.20;;;3.80;;
1380;SDS011;684;48.342;10.096;2024-02-15T07:43:09;6.73;;;3.80;;
1380;SDS011;684;48.342;10.096;2024-02-15T07:45:36;7.73;;;3.53;;
1380;SDS011;684;48.342;10.096;2024-02-15T07:48:04;6.20;;;4.00;;
1380;SDS011;684;48.342;10.096;2024-02-15T07:50:32;6.70;;;3.60;;
1380;SDS011;684;48.342;10.096;2024-02-15T07:53:01;7.57;;;3.67;;
1380;SDS011;684;48.342;10.096;2024-02-15T07:55:30;5.73;;;2.90;;
1380;SDS011;684;48.342;10.096;2024-02-15T07:57:57;7.03;;;3.50;;
1380;SDS011;684;48.342;10.096;2024-02-15T08:00:24;6.10;;;3.30;;
1380;SDS011;684;48.342;10.096;2024-02-15T08:02:52;7.50;;;3.43;;
1380;SDS011;684;48.342;10.096;2024-02-15T08:05:19;6.47;;;3.27;;
1380;SDS011;684;48.342;10.096;2024-02-15T08:07:48;6.20;;;3.67;;
1380;SDS011;684;48.342;10.096;2024-02-15T08:10:15;5.50;;;3.20;;
1380;SDS011;684;48.342;10.096;2024-02-15T08:12:42;7.07;;;3.43;;
1380;SDS011;684;48.342;10.096;2024-02-15T08:15:09;7.27;;;3.53;;
1380;SDS011;684;48.342;10.096;2024-02-15T08:17:38;4.90;;;2.70;;
1380;SDS011;684;48.342;10.096;2024-02-15T08:20:06;7.97;;;4.00;;
1380;SDS011;684;48.342;10.096;2024-02-15T08:22:34;7.23;;;3.50;;
1380;SDS011;684;48.342;10.096;2024-02-15T08:25:05;5.97;;;3.70;;
1380;SDS011;684;48.342;10.096;2024-02-15T08:27:35;5.43;;;3.23;;
1380;SDS011;684;48.342;10.096;2024-02-15T08:30:06;6.43;;;4.03;;
1380;SDS011;684;48.342;10.096;2024-02-15T08:32:34;10.50;;;3.67;;
1380;SDS011;684;48.342;10.096;2024-02-15T08:35:01;6.17;;;3.43;;
1380;SDS011;684;48.342;10.096;2024-02-15T08:37:29;5.80;;;3.33;;
1380;SDS011;684;48.342;10.096;2024-02-15T08:39:57;5.70;;;2.90;;
1380;SDS011;684;48.342;10.096;2024-02-15T08:42:26;5.40;;;3.10;;
1380;SDS011;684;48.342;10.096;2024-02-15T08:44:53;5.60;;;3.30;;
1380;SDS011;684;48.342;10.096;2024-02-15T08:47:20;6.27;;;3.50;;
1380;SDS011;684;48.342;10.096;2024-02-15T08:49:47;7.03;;;3.10;;
1380;SDS011;684;48.342;10.096;2024-02-15T08:52:14;5.50;;;3.10;;
1380;SDS011;684;48.342;10.096;2024-02-15T08:54:43;8.10;;;3.70;;
1380;SDS011;684;48.342;10.096;2024-02-15T08:57:10;5.10;;;2.37;;
1380;SDS011;684;48.342;10.096;2024-02-15T08:59:40;7.30;;;3.37;;
1380;SDS011;684;48.342;10.096;2024-02-15T09:02:07;7.07;;;3.40;;
1380;SDS011;684;48.342;10.096;2024-02-15T09:04:34;6.83;;;2.73;;
1380;SDS011;684;48.342;10.096;2024-02-15T09:07:01;7.50;;;3.00;;
1380;SDS011;684;48.342;10.096;2024-02-15T09:09:29;5.50;;;3.60;;
1380;SDS011;684;48.342;10.096;2024-02-15T09:11:56;6.40;;;4.43;;
1380;SDS011;684;48.342;10.096;2024-02-15T09:14:23;7.80;;;4.30;;
1380;SDS011;684;48.342;10.096;2024-02-15T09:16:52;6.20;;;3.60;;
1380;SDS011;684;48.342;10.096;2024-02-15T09:19:18;5.90;;;3.40;;
1380;SDS011;684;48.342;10.096;2024-02-15T09:21:45;6.20;;;3.47;;
1380;SDS011;684;48.342;10.096;2024-02-15T09:24:12;5.53;;;2.87;;
1380;SDS011;684;48.342;10.096;2024-02-15T09:26:41;6.60;;;3.50;;
1380;SDS011;684;48.342;10.096;2024-02-15T09:29:09;5.70;;;3.10;;
1380;SDS011;684;48.342;10.096;2024-02-15T09:31:37;7.87;;;3.07;;
1380;SDS011;684;48.342;10.096;2024-02-15T09:34:06;6.60;;;3.60;;
1380;SDS011;684;48.342;10.096;2024-02-15T09:36:33;5.37;;;3.87;;
1380;SDS011;684;48.342;10.096;2024-02-15T09:39:02;4.60;;;2.70;;
1380;SDS011;684;48.342;10.096;2024-02-15T09:41:28;5.50;;;3.60;;
1380;SDS011;684;48.342;10.096;2024-02-15T09:43:55;5.23;;;3.50;;
1380;SDS011;684;48.342;10.096;2024-02-15T09:46:23;5.00;;;3.10;;
1380;SDS011;684;48.342;10.096;2024-02-15T09:48:51;5.30;;;3.03;;
1380;SDS011;684;48.342;10.096;2024-02-15T09:51:24;5.30;;;2.80;;
1380;SDS011;684;48.342;10.096;2024-02-15T09:53:52;5.70;;;3.23;;
1380;SDS011;684;48.342;10.096;2024-02-15T09:56:19;5.03;;;3.50;;
1380;SDS011;684;48.342;10.096;2024-02-15T09:58:49;4.70;;;2.80;;
1380;SDS011;684;48.342;10.096;2024-02-15T10:01:17;5.93;;;2.90;;
1380;SDS011;684;48.342;10.096;2024-02-15T10:03:45;5.97;;;3.90;;
1380;SDS011;684;48.342;10.096;2024-02-15T10:06:16;5.20;;;2.77;;
1380;SDS011;684;48.342;10.096;2024-02-15T10:08:45;5.00;;;3.27;;
1380;SDS011;684;48.342;10.096;2024-02-15T10:11:12;5.47;;;2.73;;
1380;SDS011;684;48.342;10.096;2024-02-15T10:13:40;7.00;;;3.83;;
1380;SDS011;684;48.342;10.096;2024-02-15T10:16:15;5.83;;;3.20;;
1380;SDS011;684;48.342;10.096;2024-02-15T10:18:43;9.77;;;4.80;;
1380;SDS011;684;48.342;10.096;2024-02-15T10:23:57;9.63;;;3.80;;
1380;SDS011;684;48.342;10.096;2024-02-15T10:26:31;4.80;;;1.80;;
1380;SDS011;684;48.342;10.096;2024-02-15T10:29:06;4.13;;;1.80;;
1380;SDS011;684;48.342;10.096;2024-02-15T10:31:36;5.33;;;1.77;;
1380;SDS011;684;48.342;10.096;2024-02-15T10:34:04;5.50;;;1.70;;
1380;SDS011;684;48.342;10.096;2024-02-15T10:36:32;4.10;;;1.90;;
1380;SDS011;684;48.342;10.096;2024-02-15T10:39:14;4.20;;;1.67;;
1380;SDS011;684;48.342;10.096;2024-02-15T10:41:44;7.47;;;2.13;;
1380;SDS011;684;48.342;10.096;2024-02-15T10:44:15;4.00;;;1.40;;
1380;SDS011;684;48.342;10.096;2024-02-15T10:46:44;3.50;;;1.40;;
1380;SDS011;684;48.342;10.096;2024-02-15T10:49:17;4.20;;;1.80;;
1380;SDS011;684;48.342;10.096;2024-02-15T10:51:48;6.70;;;2.53;;
1380;SDS011;684;48.342;10.096;2024-02-15T10:54:27;4.97;;;1.77;;
1380;SDS011;684;48.342;10.096;2024-02-15T10:57:06;4.80;;;1.80;;
1380;SDS011;684;48.342;10.096;2024-02-15T10:59:37;4.50;;;1.53;;
1380;SDS011;684;48.342;10.096;2024-02-15T11:02:11;3.50;;;1.13;;
1380;SDS011;684;48.342;10.096;2024-02-15T11:04:52;3.80;;;1.23;;
1380;SDS011;684;48.342;10.096;2024-02-15T11:07:23;3.93;;;1.30;;
1380;SDS011;684;48.342;10.096;2024-02-15T11:09:52;4.07;;;1.37;;
1380;SDS011;684;48.342;10.096;2024-02-15T11:12:21;3.80;;;1.40;;
1380;SDS011;684;48.342;10.096;2024-02-15T11:14:48;4.87;;;1.60;;
1380;SDS011;684;48.342;10.096;2024-02-15T11:23:14;5.40;;;1.10;;
1380;SDS011;684;48.342;10.096;2024-02-15T11:25:51;4.70;;;1.20;;
1380;SDS011;684;48.342;10.096;2024-02-15T11:31:03;3.73;;;1.10;;
1380;SDS011;684;48.342;10.096;2024-02-15T11:33:34;5.40;;;1.40;;
1380;SDS011;684;48.342;10.096;2024-02-15T11:36:01;6.13;;;1.57;;
1380;SDS011;684;48.342;10.096;2024-02-15T11:38:30;5.33;;;1.43;;
1380;SDS011;684;48.342;10.096;2024-02-15T11:41:02;3.97;;;1.00;;
1380;SDS011;684;48.342;10.096;2024-02-15T11:43:49;4.40;;;1.00;;
1380;SDS011;684;48.342;10.096;2024-02-15T11:46:23;5.87;;;1.23;;
1380;SDS011;684;48.342;10.096;2024-02-15T11:48:54;3.67;;;0.83;;
1380;SDS011;684;48.342;10.096;2024-02-15T11:51:28;4.10;;;1.27;;
1380;SDS011;684;48.342;10.096;2024-02-15T11:53:59;3.97;;;1.20;;
1380;SDS011;684;48.342;10.096;2024-02-15T11:56:50;3.67;;;1.03;;
1380;SDS011;684;48.342;10.096;2024-02-15T11:59:30;4.23;;;1.00;;
1380;SDS011;684;48.342;10.096;2024-02-15T12:02:07;4.07;;;1.00;;
1380;SDS011;684;48.342;10.096;2024-02-15T12:04:52;3.20;;;1.00;;
1380;SDS011;684;48.342;10.096;2024-02-15T12:07:36;5.10;;;1.67;;
1380;SDS011;684;48.342;10.096;2024-02-15T12:10:20;3.80;;;1.40;;
1380;SDS011;684;48.342;10.096;2024-02-15T12:13:06;4.87;;;1.40;;
1380;SDS011;684;48.342;10.096;2024-02-15T12:15:57;3.60;;;1.10;;
1380;SDS011;684;48.342;10.096;2024-02-15T12:18:42;3.47;;;1.20;;
1380;SDS011;684;48.342;10.096;2024-02-15T12:21:12;6.03;;;1.97;;
1380;SDS011;684;48.342;10.096;2024-02-15T12:23:42;4.63;;;1.70;;
1380;SDS011;684;48.342;10.096;2024-02-15T12:26:11;3.53;;;1.03;;
1380;SDS011;684;48.342;10.096;2024-02-15T12:28:40;4.10;;;1.30;;
1380;SDS011;684;48.342;10.096;2024-02-15T12:31:08;4.70;;;2.00;;
1380;SDS011;684;48.342;10.096;2024-02-15T12:33:38;4.90;;;1.53;;
1380;SDS011;684;48.342;10.096;2024-02-15T12:36:05;8.50;;;1.53;;
1380;SDS011;684;48.342;10.096;2024-02-15T12:38:33;3.90;;;1.00;;
1380;SDS011;684;48.342;10.096;2024-02-15T12:41:02;3.97;;;1.37;;
1380;SDS011;684;48.342;10.096;2024-02-15T12:43:30;3.57;;;1.13;;
1380;SDS011;684;48.342;10.096;2024-02-15T12:45:58;4.23;;;1.47;;
1380;SDS011;684;48.342;10.096;2024-02-15T12:48:25;3.80;;;1.40;;
1380;SDS011;684;48.342;10.096;2024-02-15T12:50:52;3.73;;;1.20;;
1380;SDS011;684;48.342;10.096;2024-02-15T12:53:23;3.60;;;1.30;;
1380;SDS011;684;48.342;10.096;2024-02-15T12:55:52;4.63;;;1.47;;
1380;SDS011;684;48.342;10.096;2024-02-15T12:58:21;4.83;;;1.43;;
1380;SDS011;684;48.342;10.096;2024-02-15T13:00:49;3.53;;;1.10;;
1380;SDS011;684;48.342;10.096;2024-02-15T13:03:17;6.10;;;1.77;;
1380;SDS011;684;48.342;10.096;2024-02-15T13:05:44;4.30;;;1.40;;
1380;SDS011;684;48.342;10.096;2024-02-15T13:08:13;5.93;;;1.27;;
1380;SDS011;684;48.342;10.096;2024-02-15T13:10:43;4.67;;;1.40;;
1380;SDS011;684;48.342;10.096;2024-02-15T13:13:10;4.20;;;1.50;;
1380;SDS011;684;48.342;10.096;2024-02-15T13:15:37;3.73;;;1.13;;
1380;SDS011;684;48.342;10.096;2024-02-15T13:18:04;4.60;;;1.33;;
1380;SDS011;684;48.342;10.096;2024-02-15T13:20:32;3.33;;;1.40;;
1380;SDS011;684;48.342;10.096;2024-02-15T13:23:02;5.40;;;1.20;;
1380;SDS011;684;48.342;10.096;2024-02-15T13:25:34;5.63;;;1.40;;
1380;SDS011;684;48.342;10.096;2024-02-15T13:28:02;3.93;;;1.60;;
1380;SDS011;684;48.342;10.096;2024-02-15T13:30:29;3.87;;;1.17;;
1380;SDS011;684;48.342;10.096;2024-02-15T13:32:56;4.27;;;1.50;;
1380;SDS011;684;48.342;10.096;2024-02-15T13:35:23;4.30;;;1.70;;
1380;SDS011;684;48.342;10.096;2024-02-15T13:37:52;4.00;;;1.67;;
1380;SDS011;684;48.342;10.096;2024-02-15T13:40:23;4.37;;;1.70;;
1380;SDS011;684;48.342;10.096;2024-02-15T13:42:51;5.27;;;1.80;;
1380;SDS011;684;48.342;10.096;2024-02-15T13:45:19;3.90;;;1.40;;
1380;SDS011;684;48.342;10.096;2024-02-15T13:47:48;4.80;;;1.80;;
1380;SDS011;684;48.342;10.096;2024-02-15T13:50:17;4.80;;;1.83;;
1380;SDS011;684;48.342;10.096;2024-02-15T13:52:44;8.10;;;1.40;;
1380;SDS011;684;48.342;10.096;2024-02-15T13:55:13;3.97;;;1.73;;
1380;SDS011;684;48.342;10.096;2024-02-15T13:57:41;4.50;;;1.77;;
1380;SDS011;684;48.342;10.096;2024-02-15T14:00:09;3.60;;;1.13;;
1380;SDS011;684;48.342;10.096;2024-02-15T14:02:46;6.10;;;1.63;;
1380;SDS011;684;48.342;10.096;2024-02-15T14:05:13;4.57;;;1.30;;
1380;SDS011;684;48.342;10.096;2024-02-15T14:07:42;6.20;;;1.70;;
1380;SDS011;684;48.342;10.096;2024-02-15T14:10:10;5.70;;;1.60;;
1380;SDS011;684;48.342;10.096;2024-02-15T14:12:38;3.80;;;1.40;;
1380;SDS011;684;48.342;10.096;2024-02-15T14:15:06;5.17;;;1.50;;
1380;SDS011;684;48.342;10.096;2024-02-15T14:17:33;5.93;;;1.60;;
1380;SDS011;684;48.342;10.096;2024-02-15T14:20:00;3.80;;;1.50;;
1380;SDS011;684;48.342;10.096;2024-02-15T14:22:33;4.70;;;1.60;;
1380;SDS011;684;48.342;10.096;2024-02-15T14:25:00;4.80;;;1.70;;
1380;SDS011;684;48.342;10.096;2024-02-15T14:27:29;5.43;;;1.50;;
1380;SDS011;684;48.342;10.096;2024-02-15T14:29:58;4.40;;;1.43;;
1380;SDS011;684;48.342;10.096;2024-02-15T14:32:43;4.20;;;1.40;;
1380;SDS011;684;48.342;10.096;2024-02-15T14:35:28;3.60;;;1.40;;
1380;SDS011;684;48.342;10.096;2024-02-15T14:37:57;3.80;;;1.47;;
1380;SDS011;684;48.342;10.096;2024-02-15T14:40:24;5.90;;;1.77;;
1380;SDS011;684;48.342;10.096;2024-02-15T14:42:51;5.73;;;1.70;;
1380;SDS011;684;48.342;10.096;2024-02-15T14:45:19;4.07;;;1.50;;
1380;SDS011;684;48.342;10.096;2024-02-15T14:47:47;4.70;;;1.70;;
1380;SDS011;684;48.342;10.096;2024-02-15T14:50:14;4.60;;;1.63;;
1380;SDS011;684;48.342;10.096;2024-02-15T14:52:41;4.50;;;1.60;;
1380;SDS011;684;48.342;10.096;2024-02-15T14:55:08;4.60;;;1.80;;
1380;SDS011;684;48.342;10.096;2024-02-15T14:57:35;7.00;;;1.60;;
1380;SDS011;684;48.342;10.096;2024-02-15T15:00:03;5.40;;;1.67;;
1380;SDS011;684;48.342;10.096;2024-02-15T15:02:37;4.07;;;1.27;;
1380;SDS011;684;48.342;10.096;2024-02-15T15:05:04;4.47;;;1.53;;
1380;SDS011;684;48.342;10.096;2024-02-15T15:07:49;4.60;;;1.33;;
1380;SDS011;684;48.342;10.096;2024-02-15T15:10:33;5.37;;;1.47;;
1380;SDS011;684;48.342;10.096;2024-02-15T15:13:17;4.97;;;1.80;;
1380;SDS011;684;48.342;10.096;2024-02-15T15:15:44;6.17;;;1.50;;
1380;SDS011;684;48.342;10.096;2024-02-15T15:18:13;4.23;;;1.40;;
1380;SDS011;684;48.342;10.096;2024-02-15T15:20:40;6.60;;;1.73;;
1380;SDS011;684;48.342;10.096;2024-02-15T15:23:07;5.50;;;1.60;;
1380;SDS011;684;48.342;10.096;2024-02-15T15:25:34;4.70;;;1.70;;
1380;SDS011;684;48.342;10.096;2024-02-15T15:28:02;6.53;;;2.27;;
1380;SDS011;684;48.342;10.096;2024-02-15T15:30:29;5.63;;;3.23;;
1380;SDS011;684;48.342;10.096;2024-02-15T15:32:56;7.03;;;2.43;;
1380;SDS011;684;48.342;10.096;2024-02-15T15:35:25;6.67;;;1.53;;
1380;SDS011;684;48.342;10.096;2024-02-15T15:37:53;6.00;;;1.83;;